Time;durP1;ratioP1;P1;durP2;ratioP2;P2;SDS_P1;SDS_P2;PMS_P1;PMS_P2;Temp;Humidity;BMP_temperature;BMP_pressure;BME280_temperature;BME280_humidity;BME280_pressure;Samples;Min_cycle;Max_cycle;Signal;HPM_P1;HPM_P2
2023/04/27 00:01:42;;;;;;;5.03;4.30;;;;;;;;;;5065412;28;20225;-75
2023/04/27 00:04:10;;;;;;;6.73;4.50;;;;;;;;;;5087990;28;20212;-75
2023/04/27 00:06:37;;;;;;;7.40;5.17;;;;;;;;;;5072729;28;20239;-75
2023/04/27 00:09:05;;;;;;;5.83;5.03;;;;;;;;;;5087074;28;20236;-75
2023/04/27 00:11:32;;;;;;;7.87;5.20;;;;;;;;;;5070401;28;20241;-74
2023/04/27 00:13:59;;;;;;;7.30;4.67;;;;;;;;;;5070188;28;20208;-75
2023/04/27 00:16:26;;;;;;;5.07;4.30;;;;;;;;;;5070202;28;20296;-75
2023/04/27 00:18:54;;;;;;;4.40;4.00;;;;;;;;;;5069487;28;20217;-74
2023/04/27 00:21:21;;;;;;;6.07;4.57;;;;;;;;;;5070183;28;20601;-74
2023/04/27 00:23:49;;;;;;;5.70;4.47;;;;;;;;;;5070430;28;20212;-75
2023/04/27 00:26:16;;;;;;;6.90;4.80;;;;;;;;;;5073640;28;20267;-75
2023/04/27 00:28:43;;;;;;;6.30;5.13;;;;;;;;;;5071859;28;20201;-74
2023/04/27 00:31:11;;;;;;;7.60;5.40;;;;;;;;;;5088385;28;20308;-75
2023/04/27 00:33:38;;;;;;;7.50;5.50;;;;;;;;;;5079640;28;20200;-74
2023/04/27 00:36:05;;;;;;;6.90;4.47;;;;;;;;;;5090257;28;20684;-75
2023/04/27 00:38:33;;;;;;;6.53;4.30;;;;;;;;;;5072853;28;20254;-74
2023/04/27 00:41:03;;;;;;;6.00;4.30;;;;;;;;;;5089999;28;20601;-75
2023/04/27 00:43:31;;;;;;;5.73;4.43;;;;;;;;;;5083073;28;20754;-75
2023/04/27 00:45:59;;;;;;;6.83;4.40;;;;;;;;;;5052413;28;20197;-74
2023/04/27 00:48:26;;;;;;;6.97;4.20;;;;;;;;;;5070272;28;20639;-75
2023/04/27 00:50:54;;;;;;;5.37;4.30;;;;;;;;;;5070041;28;20225;-75
2023/04/27 00:53:21;;;;;;;5.93;4.67;;;;;;;;;;5070318;28;20730;-75
2023/04/27 00:55:48;;;;;;;6.47;4.63;;;;;;;;;;5069348;28;20232;-73
2023/04/27 00:58:15;;;;;;;4.93;4.47;;;;;;;;;;5068071;28;20202;-76
2023/04/27 01:00:43;;;;;;;7.37;5.10;;;;;;;;;;5077256;28;20896;-75
2023/04/27 01:03:10;;;;;;;7.40;4.93;;;;;;;;;;5063245;28;20643;-75
2023/04/27 01:05:38;;;;;;;5.07;4.53;;;;;;;;;;5069131;28;20547;-74
2023/04/27 01:08:06;;;;;;;5.70;4.40;;;;;;;;;;5068553;28;20226;-75
2023/04/27 01:10:33;;;;;;;6.17;4.77;;;;;;;;;;5051260;28;20218;-75
2023/04/27 01:13:00;;;;;;;7.07;4.50;;;;;;;;;;5069027;28;20209;-75
2023/04/27 01:15:28;;;;;;;7.03;4.57;;;;;;;;;;5069469;28;20201;-74
2023/04/27 01:18:03;;;;;;;7.47;5.17;;;;;;;;;;5068530;28;20571;-75
2023/04/27 01:20:31;;;;;;;5.47;4.73;;;;;;;;;;5068887;28;20286;-75
2023/04/27 01:22:58;;;;;;;5.57;4.30;;;;;;;;;;5069400;28;20749;-74
2023/04/27 01:25:26;;;;;;;5.07;4.57;;;;;;;;;;5068540;28;20205;-74
2023/04/27 01:27:53;;;;;;;6.50;4.70;;;;;;;;;;5068549;28;20317;-74
2023/04/27 01:30:21;;;;;;;5.87;5.10;;;;;;;;;;5069658;28;20651;-74
2023/04/27 01:32:49;;;;;;;5.80;4.57;;;;;;;;;;5070018;28;20201;-73
2023/04/27 01:35:16;;;;;;;5.37;4.40;;;;;;;;;;5082159;28;20204;-75
2023/04/27 01:37:43;;;;;;;6.23;4.10;;;;;;;;;;5074756;28;20258;-75
2023/04/27 01:40:11;;;;;;;4.63;4.00;;;;;;;;;;5056775;28;20230;-75
2023/04/27 01:42:39;;;;;;;4.83;4.23;;;;;;;;;;5065533;28;20807;-75
2023/04/27 01:45:06;;;;;;;4.57;4.07;;;;;;;;;;5075603;28;20221;-74
2023/04/27 01:47:34;;;;;;;6.07;4.50;;;;;;;;;;5068779;28;20271;-75
2023/04/27 01:50:01;;;;;;;11.00;8.47;;;;;;;;;;5068645;28;20281;-75
2023/04/27 01:52:28;;;;;;;8.17;7.37;;;;;;;;;;5068440;28;20608;-73
2023/04/27 01:54:56;;;;;;;8.80;6.03;;;;;;;;;;5050673;28;20656;-74
2023/04/27 01:57:24;;;;;;;5.80;5.20;;;;;;;;;;5067770;28;20245;-75
2023/04/27 01:59:51;;;;;;;6.60;5.20;;;;;;;;;;5068576;28;20244;-74
2023/04/27 02:02:19;;;;;;;5.07;4.60;;;;;;;;;;5061642;28;20204;-73
2023/04/27 02:04:46;;;;;;;6.93;5.57;;;;;;;;;;5067953;28;20695;-75
2023/04/27 02:07:13;;;;;;;7.43;5.93;;;;;;;;;;5067787;28;20225;-75
2023/04/27 02:09:41;;;;;;;12.60;6.70;;;;;;;;;;5067778;28;20284;-75
2023/04/27 02:12:08;;;;;;;8.63;6.37;;;;;;;;;;5068007;28;20221;-74
2023/04/27 02:14:35;;;;;;;9.83;6.73;;;;;;;;;;5067806;28;20248;-74
2023/04/27 02:17:02;;;;;;;6.43;5.27;;;;;;;;;;5067944;28;20305;-75
2023/04/27 02:19:29;;;;;;;9.23;5.20;;;;;;;;;;5067565;28;20244;-75
2023/04/27 02:21:57;;;;;;;5.90;4.87;;;;;;;;;;5049839;28;20595;-74
2023/04/27 02:24:24;;;;;;;6.50;4.90;;;;;;;;;;5050352;28;20749;-74
2023/04/27 02:26:51;;;;;;;6.47;5.07;;;;;;;;;;5049957;28;20232;-75
2023/04/27 02:29:19;;;;;;;10.03;6.17;;;;;;;;;;5067760;28;20218;-74
2023/04/27 02:31:47;;;;;;;8.33;5.77;;;;;;;;;;5062363;28;20723;-75
2023/04/27 02:34:14;;;;;;;7.07;5.43;;;;;;;;;;5077458;28;20224;-75
2023/04/27 02:36:41;;;;;;;7.70;4.87;;;;;;;;;;5067480;28;20205;-75
2023/04/27 02:39:09;;;;;;;7.87;4.57;;;;;;;;;;5082066;28;20278;-75
2023/04/27 02:41:36;;;;;;;6.93;4.20;;;;;;;;;;5088097;28;20240;-75
2023/04/27 02:44:03;;;;;;;5.63;4.57;;;;;;;;;;5088065;28;20228;-74
2023/04/27 02:46:31;;;;;;;7.03;4.43;;;;;;;;;;5088622;28;20251;-76
2023/04/27 02:48:58;;;;;;;5.57;4.10;;;;;;;;;;5069595;28;20201;-75
2023/04/27 02:51:26;;;;;;;6.97;4.17;;;;;;;;;;5077122;28;20667;-74
2023/04/27 02:53:53;;;;;;;5.57;4.13;;;;;;;;;;5067830;28;20208;-75
2023/04/27 02:56:20;;;;;;;7.23;4.23;;;;;;;;;;5067984;28;20237;-73
2023/04/27 02:58:48;;;;;;;5.90;4.10;;;;;;;;;;5068284;28;20574;-75
2023/04/27 03:01:18;;;;;;;5.53;4.20;;;;;;;;;;5085602;28;20676;-75
2023/04/27 03:03:46;;;;;;;7.50;4.10;;;;;;;;;;5079149;28;20201;-75
2023/04/27 03:06:14;;;;;;;7.03;4.33;;;;;;;;;;5070463;28;20283;-75
2023/04/27 03:08:41;;;;;;;5.07;4.37;;;;;;;;;;5067501;28;20264;-75
2023/04/27 03:11:08;;;;;;;6.00;4.30;;;;;;;;;;5068534;28;20706;-75
2023/04/27 03:13:40;;;;;;;6.77;4.43;;;;;;;;;;5068731;28;20229;-74
2023/04/27 03:16:10;;;;;;;6.73;4.10;;;;;;;;;;5050003;28;20213;-75
2023/04/27 03:18:37;;;;;;;5.63;4.17;;;;;;;;;;5067542;28;20210;-74
2023/04/27 03:21:09;;;;;;;5.07;4.53;;;;;;;;;;5065366;28;20268;-74
2023/04/27 03:23:37;;;;;;;6.53;4.30;;;;;;;;;;5087664;28;20201;-75
2023/04/27 03:26:11;;;;;;;7.53;4.87;;;;;;;;;;5072812;28;20273;-74
2023/04/27 03:28:38;;;;;;;5.67;4.60;;;;;;;;;;5077749;28;20256;-75
2023/04/27 03:31:06;;;;;;;7.00;5.10;;;;;;;;;;5072984;28;20224;-74
2023/04/27 03:33:35;;;;;;;5.90;5.37;;;;;;;;;;5071166;28;20297;-75
2023/04/27 03:36:03;;;;;;;7.40;4.27;;;;;;;;;;5053327;28;20198;-75
2023/04/27 03:38:30;;;;;;;4.63;4.20;;;;;;;;;;5063748;28;20718;-75
2023/04/27 03:40:58;;;;;;;6.80;4.50;;;;;;;;;;5072137;28;20225;-75
2023/04/27 03:43:25;;;;;;;5.90;4.40;;;;;;;;;;5070708;28;20298;-73
2023/04/27 03:45:53;;;;;;;8.00;4.40;;;;;;;;;;5071238;28;20236;-75
2023/04/27 03:48:21;;;;;;;5.70;4.47;;;;;;;;;;5071091;28;20218;-75
2023/04/27 03:50:48;;;;;;;4.70;4.30;;;;;;;;;;5080236;28;20290;-75
2023/04/27 03:53:16;;;;;;;6.17;4.27;;;;;;;;;;5091469;28;20719;-75
2023/04/27 03:55:44;;;;;;;4.77;4.30;;;;;;;;;;5072751;28;20232;-75
2023/04/27 03:58:12;;;;;;;9.97;4.63;;;;;;;;;;5090406;28;20213;-76
2023/04/27 04:00:39;;;;;;;11.77;4.67;;;;;;;;;;5090586;28;20227;-75
2023/04/27 04:03:07;;;;;;;7.57;4.60;;;;;;;;;;5077341;28;20594;-74
2023/04/27 04:05:35;;;;;;;7.20;4.63;;;;;;;;;;5091031;28;20760;-75
2023/04/27 04:08:02;;;;;;;5.87;4.40;;;;;;;;;;5060430;28;20222;-75
2023/04/27 04:10:29;;;;;;;9.70;5.20;;;;;;;;;;5070741;28;20722;-74
2023/04/27 04:12:57;;;;;;;9.03;5.07;;;;;;;;;;5070296;28;20237;-75
2023/04/27 04:15:24;;;;;;;7.77;5.20;;;;;;;;;;5070480;28;20296;-75
2023/04/27 04:17:51;;;;;;;10.50;5.60;;;;;;;;;;5069548;28;20378;-73
2023/04/27 04:20:19;;;;;;;11.23;5.80;;;;;;;;;;5052451;28;20308;-75
2023/04/27 04:22:46;;;;;;;9.43;5.87;;;;;;;;;;5070263;28;20314;-75
2023/04/27 04:25:13;;;;;;;12.43;7.90;;;;;;;;;;5070660;28;20679;-75
2023/04/27 04:27:41;;;;;;;13.07;7.00;;;;;;;;;;5070015;28;20226;-74
2023/04/27 04:30:09;;;;;;;11.60;7.60;;;;;;;;;;5070290;28;20226;-75
2023/04/27 04:32:36;;;;;;;8.53;6.30;;;;;;;;;;5075776;28;20232;-75
2023/04/27 04:35:07;;;;;;;8.83;6.00;;;;;;;;;;5082081;28;20236;-75
2023/04/27 04:37:35;;;;;;;6.73;5.20;;;;;;;;;;5069037;28;20709;-75
2023/04/27 04:40:09;;;;;;;10.03;5.40;;;;;;;;;;5068547;28;20310;-74
2023/04/27 04:42:37;;;;;;;10.07;4.90;;;;;;;;;;5052352;28;20220;-75
2023/04/27 04:45:04;;;;;;;7.57;4.83;;;;;;;;;;5070379;28;20271;-75
2023/04/27 04:47:33;;;;;;;6.73;5.20;;;;;;;;;;5069228;28;20264;-75
2023/04/27 04:50:00;;;;;;;6.43;5.10;;;;;;;;;;5070253;28;20321;-76
2023/04/27 04:52:27;;;;;;;7.73;4.50;;;;;;;;;;5070012;28;20643;-74
2023/04/27 04:54:54;;;;;;;7.63;5.10;;;;;;;;;;5069669;28;20205;-75
2023/04/27 04:57:22;;;;;;;9.73;5.23;;;;;;;;;;5069448;28;20216;-73
2023/04/27 04:59:49;;;;;;;6.37;4.70;;;;;;;;;;5069666;28;20229;-75
2023/04/27 05:02:16;;;;;;;9.33;4.50;;;;;;;;;;5066413;28;20197;-74
2023/04/27 05:04:44;;;;;;;5.03;4.37;;;;;;;;;;5075919;28;20198;-75
2023/04/27 05:07:12;;;;;;;7.43;4.50;;;;;;;;;;5069776;28;20292;-74
2023/04/27 05:09:41;;;;;;;6.20;4.37;;;;;;;;;;5068413;28;20222;-75
2023/04/27 05:12:09;;;;;;;5.73;4.10;;;;;;;;;;5069838;28;20240;-75
2023/04/27 05:14:36;;;;;;;9.63;4.60;;;;;;;;;;5069702;28;20685;-74
2023/04/27 05:17:03;;;;;;;6.80;4.70;;;;;;;;;;5089380;28;20292;-74
2023/04/27 05:19:31;;;;;;;10.33;6.87;;;;;;;;;;5088898;28;20271;-76
2023/04/27 05:21:58;;;;;;;9.40;5.10;;;;;;;;;;5089590;28;20216;-74
2023/04/27 05:24:26;;;;;;;9.50;6.17;;;;;;;;;;5089646;28;21026;-75
2023/04/27 05:26:53;;;;;;;7.67;5.43;;;;;;;;;;5089730;28;20232;-75
2023/04/27 05:29:21;;;;;;;12.97;9.33;;;;;;;;;;5088988;28;20713;-75
2023/04/27 05:31:48;;;;;;;16.97;10.10;;;;;;;;;;5079066;28;20265;-75
2023/04/27 05:34:16;;;;;;;15.77;9.00;;;;;;;;;;5072106;28;20554;-75
2023/04/27 05:36:43;;;;;;;15.57;10.07;;;;;;;;;;5080032;28;20760;-74
2023/04/27 05:39:10;;;;;;;18.27;10.57;;;;;;;;;;5063975;28;20280;-75
2023/04/27 05:41:38;;;;;;;15.00;8.33;;;;;;;;;;5088914;28;20197;-75
2023/04/27 05:44:06;;;;;;;11.33;7.50;;;;;;;;;;5089042;28;20728;-75
2023/04/27 05:46:33;;;;;;;8.20;6.90;;;;;;;;;;5088935;28;20219;-74
2023/04/27 05:49:04;;;;;;;8.90;6.10;;;;;;;;;;5084738;28;20559;-75
2023/04/27 05:51:32;;;;;;;7.93;5.30;;;;;;;;;;5067569;28;20284;-73
2023/04/27 05:54:00;;;;;;;6.57;5.27;;;;;;;;;;5050848;28;20258;-74
2023/04/27 05:56:28;;;;;;;8.37;5.10;;;;;;;;;;5050820;28;20205;-74
2023/04/27 05:58:55;;;;;;;6.20;5.30;;;;;;;;;;5069434;28;20788;-75
2023/04/27 06:01:22;;;;;;;7.67;5.33;;;;;;;;;;5065672;28;20202;-73
2023/04/27 06:03:50;;;;;;;5.73;4.80;;;;;;;;;;5080852;28;20201;-74
2023/04/27 06:06:17;;;;;;;6.30;4.53;;;;;;;;;;5082676;28;20209;-74
2023/04/27 06:08:45;;;;;;;6.40;4.93;;;;;;;;;;5067495;28;20321;-75
2023/04/27 06:11:12;;;;;;;5.30;4.80;;;;;;;;;;5068592;28;20248;-74
2023/04/27 06:13:39;;;;;;;8.30;5.37;;;;;;;;;;5068173;28;20233;-75
2023/04/27 06:16:06;;;;;;;6.23;5.23;;;;;;;;;;5050989;28;20205;-74
2023/04/27 06:18:34;;;;;;;9.70;5.43;;;;;;;;;;5049727;28;20212;-75
2023/04/27 06:21:01;;;;;;;9.97;5.33;;;;;;;;;;5068100;28;20233;-76
2023/04/27 06:23:29;;;;;;;9.43;5.00;;;;;;;;;;5068150;28;20409;-74
2023/04/27 06:25:57;;;;;;;6.43;4.73;;;;;;;;;;5068540;28;20664;-74
2023/04/27 06:28:25;;;;;;;10.07;4.87;;;;;;;;;;5049844;28;20226;-74
2023/04/27 06:30:52;;;;;;;6.03;4.60;;;;;;;;;;5051073;28;20715;-75
2023/04/27 06:33:20;;;;;;;9.23;5.30;;;;;;;;;;5070224;28;20640;-75
2023/04/27 06:35:47;;;;;;;6.73;4.90;;;;;;;;;;5070506;28;20828;-74
2023/04/27 06:38:14;;;;;;;6.37;4.83;;;;;;;;;;5067146;28;20225;-75
2023/04/27 06:40:41;;;;;;;6.13;4.50;;;;;;;;;;5085393;28;20288;-75
2023/04/27 06:43:09;;;;;;;6.07;4.20;;;;;;;;;;5088367;28;20284;-75
2023/04/27 06:45:36;;;;;;;7.23;4.60;;;;;;;;;;5088283;28;20758;-75
2023/04/27 06:48:03;;;;;;;8.77;4.70;;;;;;;;;;5070088;28;20224;-75
2023/04/27 06:50:30;;;;;;;6.57;4.27;;;;;;;;;;5088538;28;20622;-75
2023/04/27 06:52:58;;;;;;;4.70;4.13;;;;;;;;;;5088440;28;20232;-74
2023/04/27 06:55:25;;;;;;;5.93;4.37;;;;;;;;;;5088778;28;20667;-74
2023/04/27 06:57:52;;;;;;;4.93;4.13;;;;;;;;;;5078507;28;20599;-75
2023/04/27 07:00:20;;;;;;;4.40;4.00;;;;;;;;;;5068987;28;20253;-75
2023/04/27 07:02:48;;;;;;;6.57;3.93;;;;;;;;;;5073085;28;20678;-75
2023/04/27 07:05:15;;;;;;;8.80;4.60;;;;;;;;;;5092510;28;20270;-75
2023/04/27 07:07:42;;;;;;;8.60;4.20;;;;;;;;;;5092358;28;20740;-75
2023/04/27 07:10:10;;;;;;;6.63;4.20;;;;;;;;;;5092337;28;20651;-75
2023/04/27 07:12:37;;;;;;;6.03;3.80;;;;;;;;;;5087002;28;20509;-75
2023/04/27 07:15:05;;;;;;;4.20;3.80;;;;;;;;;;5072147;28;20882;-75
2023/04/27 07:17:32;;;;;;;5.63;3.83;;;;;;;;;;5071765;28;20213;-74
2023/04/27 07:20:04;;;;;;;6.73;3.77;;;;;;;;;;5071817;28;20225;-75
2023/04/27 07:22:32;;;;;;;6.13;4.03;;;;;;;;;;5053990;28;20341;-75
2023/04/27 07:25:00;;;;;;;4.93;4.17;;;;;;;;;;5071681;28;20209;-75
2023/04/27 07:27:27;;;;;;;5.60;3.70;;;;;;;;;;5071080;28;20300;-75
2023/04/27 07:29:54;;;;;;;4.00;3.60;;;;;;;;;;5071678;28;20628;-74
2023/04/27 07:32:21;;;;;;;6.77;4.23;;;;;;;;;;5069018;28;20193;-74
2023/04/27 07:34:49;;;;;;;4.87;3.73;;;;;;;;;;5085910;28;20602;-74
2023/04/27 07:37:21;;;;;;;6.37;3.60;;;;;;;;;;5055498;28;20190;-75
2023/04/27 07:39:49;;;;;;;7.07;3.90;;;;;;;;;;5081521;28;20217;-74
2023/04/27 07:42:17;;;;;;;7.47;3.37;;;;;;;;;;5085346;28;20197;-75
2023/04/27 07:44:44;;;;;;;7.23;3.67;;;;;;;;;;5074393;28;20738;-74
2023/04/27 07:47:12;;;;;;;5.13;3.77;;;;;;;;;;5070115;28;20288;-75
2023/04/27 07:49:39;;;;;;;7.67;3.30;;;;;;;;;;5070066;28;20263;-75
2023/04/27 07:52:07;;;;;;;7.23;3.50;;;;;;;;;;5070577;28;20261;-75
2023/04/27 07:54:34;;;;;;;5.37;3.70;;;;;;;;;;5070807;28;20224;-75
2023/04/27 07:57:08;;;;;;;5.50;3.40;;;;;;;;;;5070617;28;20259;-74
2023/04/27 07:59:35;;;;;;;6.53;3.73;;;;;;;;;;5070536;28;20711;-75
2023/04/27 08:02:02;;;;;;;4.47;3.40;;;;;;;;;;5064383;28;20298;-75
2023/04/27 08:04:45;;;;;;;5.43;3.50;;;;;;;;;;5070058;28;20289;-74
2023/04/27 08:07:13;;;;;;;6.10;3.77;;;;;;;;;;5070287;28;20210;-74
2023/04/27 08:09:41;;;;;;;3.97;3.50;;;;;;;;;;5069902;28;20225;-74
2023/04/27 08:12:08;;;;;;;5.90;3.80;;;;;;;;;;5070376;28;20203;-74
2023/04/27 08:14:35;;;;;;;5.70;3.40;;;;;;;;;;5069816;28;20198;-74
2023/04/27 08:17:02;;;;;;;5.83;3.30;;;;;;;;;;5070664;28;20283;-75
2023/04/27 08:19:30;;;;;;;4.07;3.08;;;;;;;;;;5069818;28;20248;-74
2023/04/27 08:21:57;;;;;;;4.80;3.50;;;;;;;;;;5070043;28;20266;-75
2023/04/27 08:24:24;;;;;;;4.70;3.57;;;;;;;;;;5070390;28;20232;-73
2023/04/27 08:26:52;;;;;;;4.97;3.50;;;;;;;;;;5070227;28;20227;-74
2023/04/27 08:29:19;;;;;;;4.15;3.22;;;;;;;;;;5051798;28;20232;-75
2023/04/27 08:31:55;;;;;;;4.75;3.53;;;;;;;;;;5062993;28;20209;-73
2023/04/27 08:34:23;;;;;;;5.25;3.45;;;;;;;;;;5077546;28;20798;-75
2023/04/27 08:36:50;;;;;;;5.32;3.25;;;;;;;;;;5069584;28;20209;-75
2023/04/27 08:39:17;;;;;;;7.97;3.55;;;;;;;;;;5074646;28;20638;-75
2023/04/27 08:41:45;;;;;;;3.55;3.03;;;;;;;;;;5069700;28;20206;-75
2023/04/27 08:44:12;;;;;;;5.70;3.00;;;;;;;;;;5052025;28;20683;-75
2023/04/27 08:46:40;;;;;;;3.15;2.67;;;;;;;;;;5070157;28;20213;-75
2023/04/27 08:49:08;;;;;;;5.00;2.90;;;;;;;;;;5069573;28;20240;-76
2023/04/27 08:51:36;;;;;;;5.47;2.72;;;;;;;;;;5069359;28;20247;-74
2023/04/27 08:54:03;;;;;;;4.20;2.70;;;;;;;;;;5069907;28;20210;-75
2023/04/27 08:56:30;;;;;;;4.32;2.90;;;;;;;;;;5069170;28;20205;-75
2023/04/27 08:58:58;;;;;;;4.45;2.78;;;;;;;;;;5069078;28;20228;-75
2023/04/27 09:01:26;;;;;;;3.92;2.90;;;;;;;;;;5066876;28;20607;-74
2023/04/27 09:03:57;;;;;;;5.28;2.70;;;;;;;;;;5048847;28;20206;-75
2023/04/27 09:06:32;;;;;;;3.67;2.40;;;;;;;;;;5069308;28;20256;-74
2023/04/27 09:09:00;;;;;;;5.87;4.60;;;;;;;;;;5068732;28;20236;-75
2023/04/27 09:11:31;;;;;;;16.57;11.23;;;;;;;;;;5068845;28;20202;-75
2023/04/27 09:13:59;;;;;;;5.10;2.95;;;;;;;;;;5069460;28;20201;-75
2023/04/27 09:16:28;;;;;;;6.43;3.40;;;;;;;;;;5069253;28;20251;-75
2023/04/27 09:18:56;;;;;;;4.72;3.20;;;;;;;;;;5058509;28;20247;-75
2023/04/27 09:21:23;;;;;;;5.20;2.67;;;;;;;;;;5075561;28;20302;-76
2023/04/27 09:23:50;;;;;;;4.45;2.80;;;;;;;;;;5084166;28;20247;-75
2023/04/27 09:26:22;;;;;;;3.75;2.50;;;;;;;;;;5070906;28;20236;-75
2023/04/27 09:28:50;;;;;;;3.17;2.42;;;;;;;;;;5089322;28;20224;-75
2023/04/27 09:31:18;;;;;;;3.03;2.75;;;;;;;;;;5074101;28;20331;-75
2023/04/27 09:33:47;;;;;;;3.85;2.85;;;;;;;;;;5066350;28;20205;-75
2023/04/27 09:36:14;;;;;;;4.00;2.40;;;;;;;;;;5068746;28;20212;-75
2023/04/27 09:38:42;;;;;;;4.40;3.03;;;;;;;;;;5068991;28;20193;-75
2023/04/27 09:41:09;;;;;;;3.53;3.22;;;;;;;;;;5070156;28;20226;-75
2023/04/27 09:43:37;;;;;;;3.70;2.60;;;;;;;;;;5069197;28;20608;-74
2023/04/27 09:46:05;;;;;;;3.45;2.50;;;;;;;;;;5051692;28;20296;-75
2023/04/27 09:48:32;;;;;;;3.38;2.60;;;;;;;;;;5084346;28;20212;-74
2023/04/27 09:50:59;;;;;;;5.03;2.40;;;;;;;;;;5089737;28;20292;-75
2023/04/27 09:53:35;;;;;;;2.60;2.40;;;;;;;;;;5089694;28;20389;-74
2023/04/27 09:56:10;;;;;;;5.20;2.67;;;;;;;;;;5089386;28;20247;-75
2023/04/27 09:58:49;;;;;;;3.58;2.65;;;;;;;;;;5088952;28;20211;-75
2023/04/27 10:01:37;;;;;;;3.45;2.72;;;;;;;;;;5088022;28;20235;-74
2023/04/27 10:04:10;;;;;;;2.63;2.42;;;;;;;;;;5073933;28;20201;-74
2023/04/27 10:06:51;;;;;;;1.98;1.80;;;;;;;;;;5069310;28;20205;-75
2023/04/27 10:09:24;;;;;;;4.45;2.13;;;;;;;;;;5068483;28;20294;-75
2023/04/27 10:11:53;;;;;;;1.90;1.80;;;;;;;;;;5051416;28;20648;-74
2023/04/27 10:14:21;;;;;;;1.85;1.70;;;;;;;;;;5068758;28;20603;-75
2023/04/27 10:16:52;;;;;;;4.78;1.70;;;;;;;;;;5051219;28;20209;-75
2023/04/27 10:19:23;;;;;;;2.63;1.77;;;;;;;;;;5069639;28;20226;-75
2023/04/27 10:22:06;;;;;;;1.63;1.52;;;;;;;;;;5077135;28;20217;-75
2023/04/27 10:24:37;;;;;;;1.55;1.40;;;;;;;;;;5088548;28;20246;-75
2023/04/27 10:27:06;;;;;;;1.50;1.40;;;;;;;;;;5089584;28;20535;-75
2023/04/27 10:29:37;;;;;;;1.65;1.55;;;;;;;;;;5088415;28;20235;-74
2023/04/27 10:32:06;;;;;;;2.25;2.05;;;;;;;;;;5075346;28;20312;-74
2023/04/27 10:34:35;;;;;;;1.70;1.40;;;;;;;;;;5072024;28;20620;-75
2023/04/27 10:37:06;;;;;;;1.83;1.67;;;;;;;;;;5083819;28;20583;-75
2023/04/27 10:39:35;;;;;;;7.53;5.15;;;;;;;;;;5073503;28;20587;-75
2023/04/27 10:42:26;;;;;;;5.35;3.17;;;;;;;;;;5092853;28;20254;-75
2023/04/27 10:44:55;;;;;;;1.77;1.40;;;;;;;;;;5085652;28;20197;-74
2023/04/27 10:47:23;;;;;;;1.90;1.80;;;;;;;;;;5075160;28;20330;-75
2023/04/27 10:49:54;;;;;;;5.13;3.05;;;;;;;;;;5075271;28;20225;-74
2023/04/27 10:52:21;;;;;;;2.80;2.33;;;;;;;;;;5072066;28;20193;-74
2023/04/27 10:54:48;;;;;;;1.40;1.30;;;;;;;;;;5072978;28;20667;-75
2023/04/27 10:57:15;;;;;;;1.40;1.30;;;;;;;;;;5092243;28;20239;-75
2023/04/27 10:59:50;;;;;;;1.40;1.30;;;;;;;;;;5069984;28;20766;-74
2023/04/27 11:02:25;;;;;;;1.30;1.20;;;;;;;;;;5057104;28;20208;-74
2023/04/27 11:04:52;;;;;;;1.55;1.20;;;;;;;;;;5071507;28;20220;-75
2023/04/27 11:07:24;;;;;;;1.52;1.42;;;;;;;;;;5071296;28;20706;-75
2023/04/27 11:09:52;;;;;;;1.77;1.40;;;;;;;;;;5053675;28;20228;-75
2023/04/27 11:12:20;;;;;;;1.35;1.33;;;;;;;;;;5053654;28;20213;-75
2023/04/27 11:14:47;;;;;;;2.25;1.95;;;;;;;;;;5071411;28;20312;-75
2023/04/27 11:17:15;;;;;;;1.95;1.52;;;;;;;;;;5053747;28;20275;-75
2023/04/27 11:19:46;;;;;;;2.03;1.85;;;;;;;;;;5070541;28;20229;-74
2023/04/27 11:22:17;;;;;;;2.35;2.10;;;;;;;;;;5071004;28;20574;-75
2023/04/27 11:24:48;;;;;;;1.98;1.80;;;;;;;;;;5071458;28;20193;-75
2023/04/27 11:27:16;;;;;;;2.28;1.50;;;;;;;;;;5071318;28;20213;-75
2023/04/27 11:29:44;;;;;;;1.75;1.45;;;;;;;;;;5070681;28;20248;-73
2023/04/27 11:32:21;;;;;;;2.58;2.05;;;;;;;;;;5063731;28;20213;-75
2023/04/27 11:34:53;;;;;;;1.98;1.50;;;;;;;;;;5067516;28;20277;-75
2023/04/27 11:37:24;;;;;;;1.73;1.63;;;;;;;;;;5073567;28;20201;-75
2023/04/27 11:39:56;;;;;;;1.50;1.40;;;;;;;;;;5081614;28;20221;-75
2023/04/27 11:42:23;;;;;;;1.40;1.30;;;;;;;;;;5091095;28;20200;-75
2023/04/27 11:44:58;;;;;;;1.30;1.30;;;;;;;;;;5091351;28;20204;-75
2023/04/27 11:47:26;;;;;;;1.80;1.30;;;;;;;;;;5075104;28;20213;-74
2023/04/27 11:49:57;;;;;;;1.45;1.30;;;;;;;;;;5070687;28;20330;-75
2023/04/27 11:52:31;;;;;;;1.73;1.30;;;;;;;;;;5070249;28;20209;-75
2023/04/27 11:54:59;;;;;;;2.15;1.95;;;;;;;;;;5070689;28;20624;-75
2023/04/27 11:57:28;;;;;;;1.60;1.50;;;;;;;;;;5070050;28;20209;-75
2023/04/27 11:59:56;;;;;;;1.50;1.40;;;;;;;;;;5070812;28;20225;-75
2023/04/27 12:02:23;;;;;;;3.40;1.40;;;;;;;;;;5068099;28;20236;-75
2023/04/27 12:04:51;;;;;;;2.08;1.63;;;;;;;;;;5072172;28;20565;-75
2023/04/27 12:07:19;;;;;;;1.98;1.40;;;;;;;;;;5070172;28;20212;-75
2023/04/27 12:09:46;;;;;;;3.28;2.28;;;;;;;;;;5052524;28;20230;-75
2023/04/27 12:12:21;;;;;;;3.85;2.80;;;;;;;;;;5070824;28;20259;-75
2023/04/27 12:14:49;;;;;;;4.30;2.95;;;;;;;;;;5070950;28;20678;-75
2023/04/27 12:17:16;;;;;;;1.75;1.50;;;;;;;;;;5071018;28;20274;-75
2023/04/27 12:19:43;;;;;;;3.25;1.77;;;;;;;;;;5052360;28;20274;-75
2023/04/27 12:22:11;;;;;;;1.73;1.60;;;;;;;;;;5070339;28;20251;-74
2023/04/27 12:24:38;;;;;;;1.98;1.50;;;;;;;;;;5070258;28;20202;-75
2023/04/27 12:27:06;;;;;;;1.48;1.38;;;;;;;;;;5070834;28;20304;-75
2023/04/27 12:29:33;;;;;;;1.50;1.40;;;;;;;;;;5052023;28;20236;-75
2023/04/27 12:32:00;;;;;;;1.60;1.50;;;;;;;;;;5065450;28;20207;-75
2023/04/27 12:34:28;;;;;;;1.20;1.10;;;;;;;;;;5090366;28;20292;-75
2023/04/27 12:36:55;;;;;;;1.35;1.23;;;;;;;;;;5086109;28;20206;-75
2023/04/27 12:39:26;;;;;;;1.30;1.20;;;;;;;;;;5077972;28;20221;-75
2023/04/27 12:41:53;;;;;;;2.70;1.30;;;;;;;;;;5068969;28;20247;-75
2023/04/27 12:44:21;;;;;;;2.35;1.20;;;;;;;;;;5089788;28;20250;-75
2023/04/27 12:46:49;;;;;;;1.25;1.15;;;;;;;;;;5072515;28;20204;-75
2023/04/27 12:49:17;;;;;;;1.20;1.10;;;;;;;;;;5089834;28;20221;-75
2023/04/27 12:51:46;;;;;;;1.40;1.30;;;;;;;;;;5090037;28;20685;-75
2023/04/27 12:54:14;;;;;;;1.40;1.30;;;;;;;;;;5085580;28;20460;-75
2023/04/27 12:56:41;;;;;;;3.22;1.83;;;;;;;;;;5070034;28;20683;-76
2023/04/27 12:59:08;;;;;;;1.50;1.40;;;;;;;;;;5050854;28;20668;-74
2023/04/27 13:01:36;;;;;;;1.95;1.77;;;;;;;;;;5064963;28;20206;-74
2023/04/27 13:04:06;;;;;;;1.48;1.38;;;;;;;;;;5085312;28;20201;-74
2023/04/27 13:06:34;;;;;;;1.60;1.50;;;;;;;;;;5069314;28;20296;-75
2023/04/27 13:09:01;;;;;;;1.33;1.23;;;;;;;;;;5068730;28;20256;-74
2023/04/27 13:11:28;;;;;;;3.80;1.75;;;;;;;;;;5075433;28;20323;-75
2023/04/27 13:13:56;;;;;;;2.72;1.70;;;;;;;;;;5089714;28;20330;-74
2023/04/27 13:16:24;;;;;;;2.00;1.90;;;;;;;;;;5089910;28;20720;-75
2023/04/27 13:18:52;;;;;;;1.80;1.40;;;;;;;;;;5070873;28;20205;-75
2023/04/27 13:21:20;;;;;;;1.70;1.60;;;;;;;;;;5089128;28;20217;-75
2023/04/27 13:23:48;;;;;;;1.58;1.48;;;;;;;;;;5088996;28;20242;-75
2023/04/27 13:26:15;;;;;;;2.65;1.50;;;;;;;;;;5089159;28;20236;-75
2023/04/27 13:28:42;;;;;;;1.35;1.25;;;;;;;;;;5088836;28;20671;-75
2023/04/27 13:31:10;;;;;;;1.45;1.35;;;;;;;;;;5088156;28;20637;-75
2023/04/27 13:33:40;;;;;;;1.50;1.40;;;;;;;;;;5078107;28;20200;-74
2023/04/27 13:36:08;;;;;;;1.50;1.30;;;;;;;;;;5089371;28;20224;-74
2023/04/27 13:38:35;;;;;;;2.28;1.60;;;;;;;;;;5067291;28;20201;-74
2023/04/27 13:41:03;;;;;;;1.60;1.30;;;;;;;;;;5089061;28;20256;-75
2023/04/27 13:43:30;;;;;;;1.38;1.27;;;;;;;;;;5088537;28;20204;-75
2023/04/27 13:45:58;;;;;;;10.55;1.52;;;;;;;;;;5078248;28;20213;-75
2023/04/27 13:48:27;;;;;;;1.30;1.20;;;;;;;;;;5068039;28;20215;-73
2023/04/27 13:50:55;;;;;;;1.58;1.45;;;;;;;;;;5050364;28;20259;-75
2023/04/27 13:53:24;;;;;;;1.27;1.15;;;;;;;;;;5068401;28;20201;-75
2023/04/27 13:55:55;;;;;;;1.73;1.38;;;;;;;;;;5068684;28;20303;-75
2023/04/27 13:58:22;;;;;;;1.50;1.30;;;;;;;;;;5068264;28;20238;-75
2023/04/27 14:00:52;;;;;;;2.22;1.30;;;;;;;;;;5068900;28;20225;-75
2023/04/27 14:03:21;;;;;;;1.55;1.17;;;;;;;;;;5067904;28;20250;-75
2023/04/27 14:05:50;;;;;;;1.20;1.10;;;;;;;;;;5069049;28;20655;-75
2023/04/27 14:08:18;;;;;;;1.55;1.45;;;;;;;;;;5068326;28;20236;-75
2023/04/27 14:10:46;;;;;;;1.30;1.20;;;;;;;;;;5068025;28;20233;-75
2023/04/27 14:13:13;;;;;;;1.40;1.30;;;;;;;;;;5068954;28;20619;-75
2023/04/27 14:15:41;;;;;;;1.27;1.17;;;;;;;;;;5050757;28;20643;-75
2023/04/27 14:18:08;;;;;;;1.65;1.30;;;;;;;;;;5067658;28;20202;-75
2023/04/27 14:20:36;;;;;;;1.50;1.40;;;;;;;;;;5067762;28;20944;-75
2023/04/27 14:23:05;;;;;;;3.13;1.60;;;;;;;;;;5068862;28;20300;-75
2023/04/27 14:25:33;;;;;;;1.27;1.25;;;;;;;;;;5050456;28;20547;-75
2023/04/27 14:28:01;;;;;;;1.73;1.40;;;;;;;;;;5067809;28;20252;-75
2023/04/27 14:30:28;;;;;;;2.75;1.50;;;;;;;;;;5067625;28;20217;-75
2023/04/27 14:32:56;;;;;;;2.10;1.98;;;;;;;;;;5070635;28;20205;-75
2023/04/27 14:35:23;;;;;;;1.60;1.50;;;;;;;;;;5087965;28;20202;-74
2023/04/27 14:37:52;;;;;;;2.22;1.40;;;;;;;;;;5054235;28;20590;-75
2023/04/27 14:40:19;;;;;;;1.48;1.40;;;;;;;;;;5066561;28;20245;-74
2023/04/27 14:42:46;;;;;;;1.48;1.38;;;;;;;;;;5067394;28;20272;-74
2023/04/27 14:45:16;;;;;;;1.38;1.27;;;;;;;;;;5068360;28;20205;-75
2023/04/27 14:47:43;;;;;;;4.05;1.75;;;;;;;;;;5067629;28;20240;-75
2023/04/27 14:50:11;;;;;;;1.30;1.17;;;;;;;;;;5068221;28;20319;-75